sensor_id;sensor_type;location;lat;lon;timestamp;temperature;humidity
24250;DHT22;12379;49.820;8.648;2023-01-08T00:02:00;10.10;99.90
24250;DHT22;12379;49.820;8.648;2023-01-08T00:04:26;10.20;99.90
24250;DHT22;12379;49.820;8.648;2023-01-08T00:06:51;10.20;99.90
24250;DHT22;12379;49.820;8.648;2023-01-08T00:09:17;10.30;99.90
24250;DHT22;12379;49.820;8.648;2023-01-08T00:11:43;10.30;99.90
24250;DHT22;12379;49.820;8.648;2023-01-08T00:14:09;10.40;99.90
24250;DHT22;12379;49.820;8.648;2023-01-08T00:16:35;10.40;99.90
24250;DHT22;12379;49.820;8.648;2023-01-08T00:19:00;10.50;99.90
24250;DHT22;12379;49.820;8.648;2023-01-08T00:21:27;10.40;99.90
24250;DHT22;12379;49.820;8.648;2023-01-08T00:23:53;10.40;99.90
24250;DHT22;12379;49.820;8.648;2023-01-08T00:26:19;10.50;99.90
24250;DHT22;12379;49.820;8.648;2023-01-08T00:28:44;10.60;99.90
24250;DHT22;12379;49.820;8.648;2023-01-08T00:31:11;10.50;99.90
24250;DHT22;12379;49.820;8.648;2023-01-08T00:33:37;10.50;99.90
24250;DHT22;12379;49.820;8.648;2023-01-08T00:36:21;10.70;99.90
24250;DHT22;12379;49.820;8.648;2023-01-08T00:38:47;10.80;99.90
24250;DHT22;12379;49.820;8.648;2023-01-08T00:41:13;10.70;99.90
24250;DHT22;12379;49.820;8.648;2023-01-08T00:43:39;10.70;99.90
24250;DHT22;12379;49.820;8.648;2023-01-08T00:46:06;10.80;99.90
24250;DHT22;12379;49.820;8.648;2023-01-08T00:48:31;10.80;99.90
24250;DHT22;12379;49.820;8.648;2023-01-08T00:51:04;10.80;99.90
24250;DHT22;12379;49.820;8.648;2023-01-08T00:53:31;10.90;99.90
24250;DHT22;12379;49.820;8.648;2023-01-08T00:56:02;10.90;99.90
24250;DHT22;12379;49.820;8.648;2023-01-08T00:58:29;10.90;99.90
24250;DHT22;12379;49.820;8.648;2023-01-08T01:00:54;10.80;99.90
24250;DHT22;12379;49.820;8.648;2023-01-08T01:03:20;10.90;99.90
24250;DHT22;12379;49.820;8.648;2023-01-08T01:05:45;10.90;99.90
24250;DHT22;12379;49.820;8.648;2023-01-08T01:08:11;10.80;99.90
24250;DHT22;12379;49.820;8.648;2023-01-08T01:10:38;10.80;99.90
24250;DHT22;12379;49.820;8.648;2023-01-08T01:13:04;10.80;99.90
24250;DHT22;12379;49.820;8.648;2023-01-08T01:15:29;10.60;99.90
24250;DHT22;12379;49.820;8.648;2023-01-08T01:17:55;10.70;99.90
24250;DHT22;12379;49.820;8.648;2023-01-08T01:20:21;10.90;99.90
24250;DHT22;12379;49.820;8.648;2023-01-08T01:22:48;11.00;99.90
24250;DHT22;12379;49.820;8.648;2023-01-08T01:25:13;11.00;99.90
24250;DHT22;12379;49.820;8.648;2023-01-08T01:27:39;10.90;99.90
24250;DHT22;12379;49.820;8.648;2023-01-08T01:30:05;10.90;99.90
24250;DHT22;12379;49.820;8.648;2023-01-08T01:32:31;10.90;99.90
24250;DHT22;12379;49.820;8.648;2023-01-08T01:34:57;11.00;99.90
24250;DHT22;12379;49.820;8.648;2023-01-08T01:37:22;11.00;99.90
24250;DHT22;12379;49.820;8.648;2023-01-08T01:39:48;11.00;99.90
24250;DHT22;12379;49.820;8.648;2023-01-08T01:42:14;10.80;99.90
24250;DHT22;12379;49.820;8.648;2023-01-08T01:45:00;10.80;99.90
24250;DHT22;12379;49.820;8.648;2023-01-08T01:47:33;10.80;99.90
24250;DHT22;12379;49.820;8.648;2023-01-08T01:50:21;10.80;99.90
24250;DHT22;12379;49.820;8.648;2023-01-08T01:53:09;10.70;99.90
24250;DHT22;12379;49.820;8.648;2023-01-08T01:55:38;10.50;99.90
24250;DHT22;12379;49.820;8.648;2023-01-08T01:58:24;10.40;99.90
24250;DHT22;12379;49.820;8.648;2023-01-08T02:00:52;10.40;99.90
24250;DHT22;12379;49.820;8.648;2023-01-08T02:03:24;10.30;99.90
24250;DHT22;12379;49.820;8.648;2023-01-08T02:05:55;10.20;99.90
24250;DHT22;12379;49.820;8.648;2023-01-08T02:08:42;10.10;99.90
24250;DHT22;12379;49.820;8.648;2023-01-08T02:11:12;10.10;99.90
24250;DHT22;12379;49.820;8.648;2023-01-08T02:13:45;10.00;99.90
24250;DHT22;12379;49.820;8.648;2023-01-08T02:16:28;10.10;99.90
24250;DHT22;12379;49.820;8.648;2023-01-08T02:19:03;10.00;99.90
24250;DHT22;12379;49.820;8.648;2023-01-08T02:21:49;10.00;99.90
24250;DHT22;12379;49.820;8.648;2023-01-08T02:27:18;10.00;99.90
24250;DHT22;12379;49.820;8.648;2023-01-08T02:29:46;10.00;99.90
24250;DHT22;12379;49.820;8.648;2023-01-08T02:32:12;10.00;99.90
24250;DHT22;12379;49.820;8.648;2023-01-08T02:34:38;10.00;99.90
24250;DHT22;12379;49.820;8.648;2023-01-08T02:37:03;10.00;99.90
24250;DHT22;12379;49.820;8.648;2023-01-08T02:42:44;10.10;99.90
24250;DHT22;12379;49.820;8.648;2023-01-08T02:45:39;10.00;99.90
24250;DHT22;12379;49.820;8.648;2023-01-08T02:50:58;10.00;99.90
24250;DHT22;12379;49.820;8.648;2023-01-08T02:53:27;9.90;99.90
24250;DHT22;12379;49.820;8.648;2023-01-08T02:55:57;10.00;99.90
24250;DHT22;12379;49.820;8.648;2023-01-08T02:58:25;10.00;99.90
24250;DHT22;12379;49.820;8.648;2023-01-08T03:00:52;10.00;99.90
24250;DHT22;12379;49.820;8.648;2023-01-08T03:03:24;10.00;99.90
24250;DHT22;12379;49.820;8.648;2023-01-08T03:08:26;9.90;99.90
24250;DHT22;12379;49.820;8.648;2023-01-08T03:10:57;9.90;99.90
24250;DHT22;12379;49.820;8.648;2023-01-08T03:16:33;10.10;99.90
24250;DHT22;12379;49.820;8.648;2023-01-08T03:19:17;10.00;99.90
24250;DHT22;12379;49.820;8.648;2023-01-08T03:21:44;9.90;99.90
24250;DHT22;12379;49.820;8.648;2023-01-08T03:24:14;9.90;99.90
24250;DHT22;12379;49.820;8.648;2023-01-08T03:26:42;9.80;99.90
24250;DHT22;12379;49.820;8.648;2023-01-08T03:29:12;9.80;99.90
24250;DHT22;12379;49.820;8.648;2023-01-08T03:31:39;9.70;99.90
24250;DHT22;12379;49.820;8.648;2023-01-08T03:34:05;9.70;99.90
24250;DHT22;12379;49.820;8.648;2023-01-08T03:36:32;9.70;99.90
24250;DHT22;12379;49.820;8.648;2023-01-08T03:41:33;9.60;99.90
24250;DHT22;12379;49.820;8.648;2023-01-08T03:44:00;9.70;99.90
24250;DHT22;12379;49.820;8.648;2023-01-08T03:46:28;9.70;99.90
24250;DHT22;12379;49.820;8.648;2023-01-08T03:48:57;9.80;99.90
24250;DHT22;12379;49.820;8.648;2023-01-08T03:51:23;9.70;99.90
24250;DHT22;12379;49.820;8.648;2023-01-08T03:53:52;9.70;99.90
24250;DHT22;12379;49.820;8.648;2023-01-08T03:56:18;9.60;99.90
24250;DHT22;12379;49.820;8.648;2023-01-08T03:58:44;9.70;99.90
24250;DHT22;12379;49.820;8.648;2023-01-08T04:01:09;9.80;99.90
24250;DHT22;12379;49.820;8.648;2023-01-08T04:03:35;9.70;99.90
24250;DHT22;12379;49.820;8.648;2023-01-08T04:06:01;9.60;99.90
24250;DHT22;12379;49.820;8.648;2023-01-08T04:08:26;9.60;99.90
24250;DHT22;12379;49.820;8.648;2023-01-08T04:10:52;9.60;99.90
24250;DHT22;12379;49.820;8.648;2023-01-08T04:13:17;9.60;99.90
24250;DHT22;12379;49.820;8.648;2023-01-08T04:15:50;9.50;99.90
24250;DHT22;12379;49.820;8.648;2023-01-08T04:18:16;9.50;99.90
24250;DHT22;12379;49.820;8.648;2023-01-08T04:20:45;9.50;99.90
24250;DHT22;12379;49.820;8.648;2023-01-08T04:23:11;9.50;99.90
24250;DHT22;12379;49.820;8.648;2023-01-08T04:25:37;9.60;99.90
24250;DHT22;12379;49.820;8.648;2023-01-08T04:28:03;9.60;99.90
24250;DHT22;12379;49.820;8.648;2023-01-08T04:30:29;9.60;99.90
24250;DHT22;12379;49.820;8.648;2023-01-08T04:32:54;9.60;99.90
24250;DHT22;12379;49.820;8.648;2023-01-08T04:35:20;9.60;99.90
24250;DHT22;12379;49.820;8.648;2023-01-08T04:37:46;9.60;99.90
24250;DHT22;12379;49.820;8.648;2023-01-08T04:40:11;9.60;99.90
24250;DHT22;12379;49.820;8.648;2023-01-08T04:42:37;9.60;99.90
24250;DHT22;12379;49.820;8.648;2023-01-08T04:45:03;9.60;99.90
24250;DHT22;12379;49.820;8.648;2023-01-08T04:47:29;9.60;99.90
24250;DHT22;12379;49.820;8.648;2023-01-08T04:49:54;9.60;99.90
24250;DHT22;12379;49.820;8.648;2023-01-08T04:52:23;9.50;99.90
24250;DHT22;12379;49.820;8.648;2023-01-08T04:54:48;9.40;99.90
24250;DHT22;12379;49.820;8.648;2023-01-08T04:57:14;9.40;99.90
24250;DHT22;12379;49.820;8.648;2023-01-08T04:59:39;9.40;99.90
24250;DHT22;12379;49.820;8.648;2023-01-08T05:02:05;9.40;99.90
24250;DHT22;12379;49.820;8.648;2023-01-08T05:04:30;9.40;99.90
24250;DHT22;12379;49.820;8.648;2023-01-08T05:06:56;9.40;99.90
24250;DHT22;12379;49.820;8.648;2023-01-08T05:09:21;9.40;99.90
24250;DHT22;12379;49.820;8.648;2023-01-08T05:11:47;9.40;99.90
24250;DHT22;12379;49.820;8.648;2023-01-08T05:14:12;9.40;99.90
24250;DHT22;12379;49.820;8.648;2023-01-08T05:16:38;9.30;99.90
24250;DHT22;12379;49.820;8.648;2023-01-08T05:19:04;9.30;99.90
24250;DHT22;12379;49.820;8.648;2023-01-08T05:21:29;9.40;99.90
24250;DHT22;12379;49.820;8.648;2023-01-08T05:23:55;9.30;99.90
24250;DHT22;12379;49.820;8.648;2023-01-08T05:26:20;9.30;99.90
24250;DHT22;12379;49.820;8.648;2023-01-08T05:28:46;9.40;99.90
24250;DHT22;12379;49.820;8.648;2023-01-08T05:31:12;9.40;99.90
24250;DHT22;12379;49.820;8.648;2023-01-08T05:33:38;9.40;99.90
24250;DHT22;12379;49.820;8.648;2023-01-08T05:36:05;9.30;99.90
24250;DHT22;12379;49.820;8.648;2023-01-08T05:38:31;9.40;99.90
24250;DHT22;12379;49.820;8.648;2023-01-08T05:40:56;9.40;99.90
24250;DHT22;12379;49.820;8.648;2023-01-08T05:43:22;9.40;99.90
24250;DHT22;12379;49.820;8.648;2023-01-08T05:45:47;9.30;99.90
24250;DHT22;12379;49.820;8.648;2023-01-08T05:48:13;9.30;99.90
24250;DHT22;12379;49.820;8.648;2023-01-08T05:50:40;9.20;99.90
24250;DHT22;12379;49.820;8.648;2023-01-08T05:53:07;9.20;99.90
24250;DHT22;12379;49.820;8.648;2023-01-08T05:55:33;9.20;99.90
24250;DHT22;12379;49.820;8.648;2023-01-08T05:58:03;9.10;99.90
24250;DHT22;12379;49.820;8.648;2023-01-08T06:00:29;9.10;99.90
24250;DHT22;12379;49.820;8.648;2023-01-08T06:02:55;9.10;99.90
24250;DHT22;12379;49.820;8.648;2023-01-08T06:05:21;9.10;99.90
24250;DHT22;12379;49.820;8.648;2023-01-08T06:07:46;9.00;99.90
24250;DHT22;12379;49.820;8.648;2023-01-08T06:10:12;9.00;99.90
24250;DHT22;12379;49.820;8.648;2023-01-08T06:12:37;8.90;99.90
24250;DHT22;12379;49.820;8.648;2023-01-08T06:15:04;9.00;99.90
24250;DHT22;12379;49.820;8.648;2023-01-08T06:17:30;9.00;99.90
24250;DHT22;12379;49.820;8.648;2023-01-08T06:19:56;9.00;99.90
24250;DHT22;12379;49.820;8.648;2023-01-08T06:22:21;9.00;99.90
24250;DHT22;12379;49.820;8.648;2023-01-08T06:24:47;9.00;99.90
24250;DHT22;12379;49.820;8.648;2023-01-08T06:27:12;9.10;99.90
24250;DHT22;12379;49.820;8.648;2023-01-08T06:29:38;9.10;99.90
24250;DHT22;12379;49.820;8.648;2023-01-08T06:32:04;9.00;99.90
24250;DHT22;12379;49.820;8.648;2023-01-08T06:34:29;9.00;99.90
24250;DHT22;12379;49.820;8.648;2023-01-08T06:36:55;9.00;99.90
24250;DHT22;12379;49.820;8.648;2023-01-08T06:39:20;9.00;99.90
24250;DHT22;12379;49.820;8.648;2023-01-08T06:41:46;9.10;99.90
24250;DHT22;12379;49.820;8.648;2023-01-08T06:44:12;9.10;99.90
24250;DHT22;12379;49.820;8.648;2023-01-08T06:46:37;9.20;99.90
24250;DHT22;12379;49.820;8.648;2023-01-08T06:49:08;9.10;99.90
24250;DHT22;12379;49.820;8.648;2023-01-08T06:51:34;9.20;99.90
24250;DHT22;12379;49.820;8.648;2023-01-08T06:53:59;9.10;99.90
24250;DHT22;12379;49.820;8.648;2023-01-08T06:56:25;9.20;99.90
24250;DHT22;12379;49.820;8.648;2023-01-08T06:58:51;9.20;99.90
24250;DHT22;12379;49.820;8.648;2023-01-08T07:01:17;9.20;99.90
24250;DHT22;12379;49.820;8.648;2023-01-08T07:03:43;9.20;99.90
24250;DHT22;12379;49.820;8.648;2023-01-08T07:06:20;9.10;99.90
24250;DHT22;12379;49.820;8.648;2023-01-08T07:08:46;9.00;99.90
24250;DHT22;12379;49.820;8.648;2023-01-08T07:11:12;8.90;99.90
24250;DHT22;12379;49.820;8.648;2023-01-08T07:13:38;8.90;99.90
24250;DHT22;12379;49.820;8.648;2023-01-08T07:16:08;9.00;99.90
24250;DHT22;12379;49.820;8.648;2023-01-08T07:18:35;8.90;99.90
24250;DHT22;12379;49.820;8.648;2023-01-08T07:21:05;8.80;99.90
24250;DHT22;12379;49.820;8.648;2023-01-08T07:23:31;8.80;99.90
24250;DHT22;12379;49.820;8.648;2023-01-08T07:26:01;8.80;99.90
24250;DHT22;12379;49.820;8.648;2023-01-08T07:28:27;8.90;99.90
24250;DHT22;12379;49.820;8.648;2023-01-08T07:30:53;8.90;99.90
24250;DHT22;12379;49.820;8.648;2023-01-08T07:33:18;8.80;99.90
24250;DHT22;12379;49.820;8.648;2023-01-08T07:35:51;8.90;99.90
24250;DHT22;12379;49.820;8.648;2023-01-08T07:38:16;8.90;99.90
24250;DHT22;12379;49.820;8.648;2023-01-08T07:40:42;8.90;99.90
24250;DHT22;12379;49.820;8.648;2023-01-08T07:43:08;9.00;99.90
24250;DHT22;12379;49.820;8.648;2023-01-08T07:45:33;9.00;99.90
24250;DHT22;12379;49.820;8.648;2023-01-08T07:47:59;9.00;99.90
24250;DHT22;12379;49.820;8.648;2023-01-08T07:50:25;9.00;99.90
24250;DHT22;12379;49.820;8.648;2023-01-08T07:52:51;9.00;99.90
24250;DHT22;12379;49.820;8.648;2023-01-08T07:55:17;9.00;99.90
24250;DHT22;12379;49.820;8.648;2023-01-08T07:57:42;9.00;99.90
24250;DHT22;12379;49.820;8.648;2023-01-08T08:00:08;9.00;99.90
24250;DHT22;12379;49.820;8.648;2023-01-08T08:02:34;9.00;99.90
24250;DHT22;12379;49.820;8.648;2023-01-08T08:05:00;9.00;99.90
24250;DHT22;12379;49.820;8.648;2023-01-08T08:07:25;9.10;99.90
24250;DHT22;12379;49.820;8.648;2023-01-08T08:09:51;9.00;99.90
24250;DHT22;12379;49.820;8.648;2023-01-08T08:12:17;8.90;99.90
24250;DHT22;12379;49.820;8.648;2023-01-08T08:14:42;9.00;99.90
24250;DHT22;12379;49.820;8.648;2023-01-08T08:17:08;9.00;99.90
24250;DHT22;12379;49.820;8.648;2023-01-08T08:19:33;9.00;99.90
24250;DHT22;12379;49.820;8.648;2023-01-08T08:21:59;9.00;99.90
24250;DHT22;12379;49.820;8.648;2023-01-08T08:24:24;9.00;99.90
24250;DHT22;12379;49.820;8.648;2023-01-08T08:26:50;8.90;99.90
24250;DHT22;12379;49.820;8.648;2023-01-08T08:29:18;8.90;99.90
24250;DHT22;12379;49.820;8.648;2023-01-08T08:31:44;8.90;99.90
24250;DHT22;12379;49.820;8.648;2023-01-08T08:34:09;8.90;99.90
24250;DHT22;12379;49.820;8.648;2023-01-08T08:36:35;8.90;99.90
24250;DHT22;12379;49.820;8.648;2023-01-08T08:39:02;8.90;99.90
24250;DHT22;12379;49.820;8.648;2023-01-08T08:41:27;8.80;99.90
24250;DHT22;12379;49.820;8.648;2023-01-08T08:43:53;8.80;99.90
24250;DHT22;12379;49.820;8.648;2023-01-08T08:46:18;8.90;99.90
24250;DHT22;12379;49.820;8.648;2023-01-08T08:48:44;8.80;99.90
24250;DHT22;12379;49.820;8.648;2023-01-08T08:51:10;8.80;99.90
24250;DHT22;12379;49.820;8.648;2023-01-08T08:53:36;8.80;99.90
24250;DHT22;12379;49.820;8.648;2023-01-08T08:56:02;8.90;99.90
24250;DHT22;12379;49.820;8.648;2023-01-08T08:58:27;9.00;99.90
24250;DHT22;12379;49.820;8.648;2023-01-08T09:00:53;8.90;99.90
24250;DHT22;12379;49.820;8.648;2023-01-08T09:03:18;8.90;99.90
24250;DHT22;12379;49.820;8.648;2023-01-08T09:05:44;8.90;99.90
24250;DHT22;12379;49.820;8.648;2023-01-08T09:10:46;8.80;99.90
24250;DHT22;12379;49.820;8.648;2023-01-08T09:13:12;8.80;99.90
24250;DHT22;12379;49.820;8.648;2023-01-08T09:15:38;8.80;99.90
24250;DHT22;12379;49.820;8.648;2023-01-08T09:18:04;8.70;99.90
24250;DHT22;12379;49.820;8.648;2023-01-08T09:20:30;8.70;99.90
24250;DHT22;12379;49.820;8.648;2023-01-08T09:22:59;8.80;99.90
24250;DHT22;12379;49.820;8.648;2023-01-08T09:25:26;8.70;99.90
24250;DHT22;12379;49.820;8.648;2023-01-08T09:28:00;8.80;99.90
24250;DHT22;12379;49.820;8.648;2023-01-08T09:30:25;8.80;99.90
24250;DHT22;12379;49.820;8.648;2023-01-08T09:32:55;8.80;99.90
24250;DHT22;12379;49.820;8.648;2023-01-08T09:35:21;8.80;99.90
24250;DHT22;12379;49.820;8.648;2023-01-08T09:37:50;8.80;99.90
24250;DHT22;12379;49.820;8.648;2023-01-08T09:40:15;9.00;99.90
24250;DHT22;12379;49.820;8.648;2023-01-08T09:42:41;8.90;99.90
24250;DHT22;12379;49.820;8.648;2023-01-08T09:45:15;9.00;99.90
24250;DHT22;12379;49.820;8.648;2023-01-08T09:47:43;9.00;99.90
24250;DHT22;12379;49.820;8.648;2023-01-08T09:50:13;9.10;99.90
24250;DHT22;12379;49.820;8.648;2023-01-08T09:52:38;9.10;99.90
24250;DHT22;12379;49.820;8.648;2023-01-08T09:55:14;9.20;99.90
24250;DHT22;12379;49.820;8.648;2023-01-08T09:57:41;9.10;99.90
24250;DHT22;12379;49.820;8.648;2023-01-08T10:00:21;9.10;99.90
24250;DHT22;12379;49.820;8.648;2023-01-08T10:02:48;9.20;99.90
24250;DHT22;12379;49.820;8.648;2023-01-08T10:05:16;9.10;99.90
24250;DHT22;12379;49.820;8.648;2023-01-08T10:07:43;9.20;99.90
24250;DHT22;12379;49.820;8.648;2023-01-08T10:10:29;9.20;99.90
24250;DHT22;12379;49.820;8.648;2023-01-08T10:12:56;9.30;99.90
24250;DHT22;12379;49.820;8.648;2023-01-08T10:15:22;9.20;99.90
24250;DHT22;12379;49.820;8.648;2023-01-08T10:18:01;9.20;99.90
24250;DHT22;12379;49.820;8.648;2023-01-08T10:20:29;9.30;99.90
24250;DHT22;12379;49.820;8.648;2023-01-08T10:22:55;9.30;99.90
24250;DHT22;12379;49.820;8.648;2023-01-08T10:25:26;9.30;99.90
24250;DHT22;12379;49.820;8.648;2023-01-08T10:27:58;9.30;99.90
24250;DHT22;12379;49.820;8.648;2023-01-08T10:33:00;9.30;99.90
24250;DHT22;12379;49.820;8.648;2023-01-08T10:35:34;9.30;99.90
24250;DHT22;12379;49.820;8.648;2023-01-08T10:38:01;9.40;99.90
24250;DHT22;12379;49.820;8.648;2023-01-08T10:40:38;9.40;99.90
24250;DHT22;12379;49.820;8.648;2023-01-08T10:43:14;9.40;99.90
24250;DHT22;12379;49.820;8.648;2023-01-08T10:45:42;9.40;99.90
24250;DHT22;12379;49.820;8.648;2023-01-08T10:48:16;9.50;99.90
24250;DHT22;12379;49.820;8.648;2023-01-08T10:50:42;9.60;99.90
24250;DHT22;12379;49.820;8.648;2023-01-08T10:53:25;9.70;99.90
24250;DHT22;12379;49.820;8.648;2023-01-08T10:56:03;9.70;99.90
24250;DHT22;12379;49.820;8.648;2023-01-08T10:58:38;9.60;99.90
24250;DHT22;12379;49.820;8.648;2023-01-08T11:01:15;9.60;99.90
24250;DHT22;12379;49.820;8.648;2023-01-08T11:03:41;9.70;99.90
24250;DHT22;12379;49.820;8.648;2023-01-08T11:06:22;9.80;99.90
24250;DHT22;12379;49.820;8.648;2023-01-08T11:08:53;9.90;99.90
24250;DHT22;12379;49.820;8.648;2023-01-08T11:11:19;10.20;99.90
24250;DHT22;12379;49.820;8.648;2023-01-08T11:13:59;10.40;99.90
24250;DHT22;12379;49.820;8.648;2023-01-08T11:16:36;10.50;99.90
24250;DHT22;12379;49.820;8.648;2023-01-08T11:19:03;10.70;99.90
24250;DHT22;12379;49.820;8.648;2023-01-08T11:21:30;10.70;99.90
24250;DHT22;12379;49.820;8.648;2023-01-08T11:24:14;10.70;99.90
24250;DHT22;12379;49.820;8.648;2023-01-08T11:26:44;10.50;99.90
24250;DHT22;12379;49.820;8.648;2023-01-08T11:29:29;10.40;99.90
24250;DHT22;12379;49.820;8.648;2023-01-08T11:32:22;10.50;99.90
24250;DHT22;12379;49.820;8.648;2023-01-08T11:35:11;10.40;99.90
24250;DHT22;12379;49.820;8.648;2023-01-08T11:37:45;10.30;99.90
24250;DHT22;12379;49.820;8.648;2023-01-08T11:40:15;10.40;99.90
24250;DHT22;12379;49.820;8.648;2023-01-08T11:43:09;10.50;99.90
24250;DHT22;12379;49.820;8.648;2023-01-08T11:48:39;10.70;99.90
24250;DHT22;12379;49.820;8.648;2023-01-08T12:07:41;10.60;99.90
24250;DHT22;12379;49.820;8.648;2023-01-08T12:16:45;10.50;99.90
24250;DHT22;12379;49.820;8.648;2023-01-08T12:19:31;10.30;99.90
24250;DHT22;12379;49.820;8.648;2023-01-08T12:25:40;10.50;99.90
24250;DHT22;12379;49.820;8.648;2023-01-08T12:28:39;10.70;99.90
24250;DHT22;12379;49.820;8.648;2023-01-08T12:34:26;10.90;99.90
24250;DHT22;12379;49.820;8.648;2023-01-08T12:37:03;10.80;99.90
24250;DHT22;12379;49.820;8.648;2023-01-08T12:39:35;10.80;99.90
24250;DHT22;12379;49.820;8.648;2023-01-08T12:42:14;10.80;99.90
24250;DHT22;12379;49.820;8.648;2023-01-08T12:44:41;10.70;99.90
24250;DHT22;12379;49.820;8.648;2023-01-08T12:47:14;10.90;99.90
24250;DHT22;12379;49.820;8.648;2023-01-08T12:49:48;10.70;99.90
24250;DHT22;12379;49.820;8.648;2023-01-08T12:52:24;10.70;99.90
24250;DHT22;12379;49.820;8.648;2023-01-08T12:55:25;10.80;99.90
24250;DHT22;12379;49.820;8.648;2023-01-08T12:57:57;10.80;99.90
24250;DHT22;12379;49.820;8.648;2023-01-08T13:00:38;10.70;99.90
24250;DHT22;12379;49.820;8.648;2023-01-08T13:03:11;10.80;99.90
24250;DHT22;12379;49.820;8.648;2023-01-08T13:05:40;10.70;99.90
24250;DHT22;12379;49.820;8.648;2023-01-08T13:10:53;10.60;99.90
24250;DHT22;12379;49.820;8.648;2023-01-08T13:13:28;10.60;99.90
24250;DHT22;12379;49.820;8.648;2023-01-08T13:18:37;10.60;99.90
24250;DHT22;12379;49.820;8.648;2023-01-08T13:21:04;10.70;99.90
24250;DHT22;12379;49.820;8.648;2023-01-08T13:23:32;10.80;99.90
24250;DHT22;12379;49.820;8.648;2023-01-08T13:26:01;10.90;99.90
24250;DHT22;12379;49.820;8.648;2023-01-08T13:33:43;10.90;99.90
24250;DHT22;12379;49.820;8.648;2023-01-08T13:38:38;10.90;99.90
24250;DHT22;12379;49.820;8.648;2023-01-08T13:41:03;10.90;99.90
24250;DHT22;12379;49.820;8.648;2023-01-08T13:43:37;10.80;99.90
24250;DHT22;12379;49.820;8.648;2023-01-08T13:46:06;10.70;99.90
24250;DHT22;12379;49.820;8.648;2023-01-08T13:48:47;10.70;99.90
24250;DHT22;12379;49.820;8.648;2023-01-08T13:51:32;10.70;99.90
24250;DHT22;12379;49.820;8.648;2023-01-08T13:56:38;10.60;99.90
24250;DHT22;12379;49.820;8.648;2023-01-08T13:59:04;10.60;99.90
24250;DHT22;12379;49.820;8.648;2023-01-08T14:01:30;10.70;99.90
24250;DHT22;12379;49.820;8.648;2023-01-08T14:03:56;10.70;99.90
24250;DHT22;12379;49.820;8.648;2023-01-08T14:06:24;10.80;99.90
24250;DHT22;12379;49.820;8.648;2023-01-08T14:11:22;11.00;99.90
24250;DHT22;12379;49.820;8.648;2023-01-08T14:13:48;11.00;99.90
24250;DHT22;12379;49.820;8.648;2023-01-08T14:16:15;10.90;99.90
24250;DHT22;12379;49.820;8.648;2023-01-08T14:18:45;10.80;99.90
24250;DHT22;12379;49.820;8.648;2023-01-08T14:21:14;10.90;99.90
24250;DHT22;12379;49.820;8.648;2023-01-08T14:24:03;10.80;99.90
24250;DHT22;12379;49.820;8.648;2023-01-08T14:26:35;10.80;99.90
24250;DHT22;12379;49.820;8.648;2023-01-08T14:29:03;10.70;99.90
24250;DHT22;12379;49.820;8.648;2023-01-08T14:31:36;10.70;99.90
24250;DHT22;12379;49.820;8.648;2023-01-08T14:34:03;10.60;99.90
24250;DHT22;12379;49.820;8.648;2023-01-08T14:36:29;10.50;99.90
24250;DHT22;12379;49.820;8.648;2023-01-08T14:38:55;10.60;99.90
24250;DHT22;12379;49.820;8.648;2023-01-08T14:41:33;10.50;99.90
24250;DHT22;12379;49.820;8.648;2023-01-08T14:44:19;10.50;99.90
24250;DHT22;12379;49.820;8.648;2023-01-08T14:46:45;10.40;99.90
24250;DHT22;12379;49.820;8.648;2023-01-08T14:49:29;10.30;99.90
24250;DHT22;12379;49.820;8.648;2023-01-08T14:51:57;10.40;99.90
24250;DHT22;12379;49.820;8.648;2023-01-08T14:54:29;10.40;99.90
24250;DHT22;12379;49.820;8.648;2023-01-08T14:56:56;10.50;99.90
24250;DHT22;12379;49.820;8.648;2023-01-08T14:59:28;10.60;99.90
24250;DHT22;12379;49.820;8.648;2023-01-08T15:01:57;10.40;99.90
24250;DHT22;12379;49.820;8.648;2023-01-08T15:04:24;10.40;99.90
24250;DHT22;12379;49.820;8.648;2023-01-08T15:06:51;10.40;99.90
24250;DHT22;12379;49.820;8.648;2023-01-08T15:09:29;10.40;99.90
24250;DHT22;12379;49.820;8.648;2023-01-08T15:12:05;10.40;99.90
24250;DHT22;12379;49.820;8.648;2023-01-08T15:14:32;10.40;99.90
24250;DHT22;12379;49.820;8.648;2023-01-08T15:17:10;10.50;99.90
24250;DHT22;12379;49.820;8.648;2023-01-08T15:19:50;10.50;99.90
24250;DHT22;12379;49.820;8.648;2023-01-08T15:22:27;10.40;99.90
24250;DHT22;12379;49.820;8.648;2023-01-08T15:25:02;10.40;99.90
24250;DHT22;12379;49.820;8.648;2023-01-08T15:27:28;10.40;99.90
24250;DHT22;12379;49.820;8.648;2023-01-08T15:30:01;10.40;99.90
24250;DHT22;12379;49.820;8.648;2023-01-08T15:32:30;10.30;99.90
24250;DHT22;12379;49.820;8.648;2023-01-08T15:34:57;10.30;99.90
24250;DHT22;12379;49.820;8.648;2023-01-08T15:37:23;10.20;99.90
24250;DHT22;12379;49.820;8.648;2023-01-08T15:39:48;10.10;99.90
24250;DHT22;12379;49.820;8.648;2023-01-08T15:45:04;10.00;99.90
24250;DHT22;12379;49.820;8.648;2023-01-08T15:47:30;10.00;99.90
24250;DHT22;12379;49.820;8.648;2023-01-08T15:49:56;10.00;99.90
24250;DHT22;12379;49.820;8.648;2023-01-08T15:52:23;10.00;99.90
24250;DHT22;12379;49.820;8.648;2023-01-08T15:54:55;10.00;99.90
24250;DHT22;12379;49.820;8.648;2023-01-08T15:57:20;10.00;99.90
24250;DHT22;12379;49.820;8.648;2023-01-08T15:59:46;9.90;99.90
24250;DHT22;12379;49.820;8.648;2023-01-08T16:02:11;9.80;99.90
24250;DHT22;12379;49.820;8.648;2023-01-08T16:04:37;9.80;99.90
24250;DHT22;12379;49.820;8.648;2023-01-08T16:07:04;9.90;99.90
24250;DHT22;12379;49.820;8.648;2023-01-08T16:09:29;9.90;99.90
24250;DHT22;12379;49.820;8.648;2023-01-08T16:11:55;9.80;99.90
24250;DHT22;12379;49.820;8.648;2023-01-08T16:14:20;9.80;99.90
24250;DHT22;12379;49.820;8.648;2023-01-08T16:16:46;9.80;99.90
24250;DHT22;12379;49.820;8.648;2023-01-08T16:19:11;9.80;99.90
24250;DHT22;12379;49.820;8.648;2023-01-08T16:21:37;9.80;99.90
24250;DHT22;12379;49.820;8.648;2023-01-08T16:24:03;9.80;99.90
24250;DHT22;12379;49.820;8.648;2023-01-08T16:26:28;9.80;99.90
24250;DHT22;12379;49.820;8.648;2023-01-08T16:28:54;9.80;99.90
24250;DHT22;12379;49.820;8.648;2023-01-08T16:31:19;9.70;99.90
24250;DHT22;12379;49.820;8.648;2023-01-08T16:33:45;9.80;99.90
24250;DHT22;12379;49.820;8.648;2023-01-08T16:36:10;9.80;99.90
24250;DHT22;12379;49.820;8.648;2023-01-08T16:38:36;9.90;99.90
24250;DHT22;12379;49.820;8.648;2023-01-08T16:41:02;9.90;99.90
24250;DHT22;12379;49.820;8.648;2023-01-08T16:43:29;9.80;99.90
24250;DHT22;12379;49.820;8.648;2023-01-08T16:45:56;10.00;99.90
24250;DHT22;12379;49.820;8.648;2023-01-08T16:48:27;10.10;99.90
24250;DHT22;12379;49.820;8.648;2023-01-08T16:50:53;10.10;99.90
24250;DHT22;12379;49.820;8.648;2023-01-08T16:53:19;10.10;99.90
24250;DHT22;12379;49.820;8.648;2023-01-08T16:55:46;10.20;99.90
24250;DHT22;12379;49.820;8.648;2023-01-08T16:58:11;10.20;99.90
24250;DHT22;12379;49.820;8.648;2023-01-08T17:00:37;10.20;99.90
24250;DHT22;12379;49.820;8.648;2023-01-08T17:03:04;10.20;99.90
24250;DHT22;12379;49.820;8.648;2023-01-08T17:05:30;10.20;99.90
24250;DHT22;12379;49.820;8.648;2023-01-08T17:07:56;10.20;99.90